Time;durP1;ratioP1;P1;durP2;ratioP2;P2;SDS_P1;SDS_P2;PMS_P1;PMS_P2;Temp;Humidity;BMP_temperature;BMP_pressure;BME280_temperature;BME280_humidity;BME280_pressure;Samples;Min_cycle;Max_cycle;Signal;HPM_P1;HPM_P2
2022/04/25 00:01:39;;;;;;;4.13;1.50;;;21.20;73.40;;;;;;4018867;29;20711;-55
2022/04/25 00:03:42;;;;;;;5.82;1.55;;;21.20;73.30;;;;;;4032353;29;21511;-60
2022/04/25 00:05:44;;;;;;;6.20;1.92;;;21.30;73.40;;;;;;4033419;29;20595;-57
2022/04/25 00:07:47;;;;;;;10.55;2.00;;;21.30;73.30;;;;;;4018106;29;20059;-56
2022/04/25 00:09:49;;;;;;;5.38;1.60;;;21.30;73.40;;;;;;4021305;29;20063;-58
2022/04/25 00:11:51;;;;;;;6.18;1.85;;;21.30;73.30;;;;;;4028781;29;20599;-57
2022/04/25 00:13:55;;;;;;;7.03;1.98;;;21.30;73.20;;;;;;4026308;29;20107;-55
2022/04/25 00:15:57;;;;;;;;;;;21.30;73.20;;;;;;4018355;29;20143;-56
2022/04/25 00:17:59;;;;;;;4.95;1.80;;;21.30;73.30;;;;;;4025798;29;20331;-57
2022/04/25 00:20:01;;;;;;;8.93;1.70;;;21.30;73.40;;;;;;4026609;29;20788;-56
2022/04/25 00:22:04;;;;;;;5.85;1.58;;;21.30;73.50;;;;;;4018835;29;20068;-57
2022/04/25 00:24:06;;;;;;;4.65;1.70;;;21.30;73.50;;;;;;4015755;29;21737;-55
2022/04/25 00:26:09;;;;;;;4.90;2.00;;;21.30;73.40;;;;;;4027030;29;20067;-61
2022/04/25 00:28:11;;;;;;;5.43;1.73;;;21.40;73.50;;;;;;4028934;29;20136;-59
2022/04/25 00:30:13;;;;;;;5.10;1.87;;;21.40;73.50;;;;;;4035705;29;20052;-59
2022/04/25 00:32:15;;;;;;;5.13;1.70;;;21.30;73.50;;;;;;4028343;29;20162;-56
2022/04/25 00:34:17;;;;;;;4.07;1.90;;;21.40;73.80;;;;;;4025013;29;20059;-59
2022/04/25 00:36:20;;;;;;;3.90;1.42;;;21.40;73.60;;;;;;4035714;29;20074;-58
2022/04/25 00:38:22;;;;;;;4.55;1.63;;;21.40;73.60;;;;;;4026418;29;20186;-54
2022/04/25 00:40:25;;;;;;;5.38;1.40;;;21.30;73.60;;;;;;4027565;29;20211;-59
2022/04/25 00:42:27;;;;;;;3.58;1.67;;;21.40;73.70;;;;;;4029925;29;20055;-60
2022/04/25 00:44:29;;;;;;;4.20;1.50;;;21.40;73.70;;;;;;4015816;29;20052;-61
2022/04/25 00:46:32;;;;;;;4.10;1.40;;;21.40;73.70;;;;;;4023932;29;20054;-55
2022/04/25 00:48:34;;;;;;;5.32;2.05;;;21.40;73.60;;;;;;4030620;29;20051;-61
2022/04/25 00:50:38;;;;;;;4.30;1.65;;;21.50;73.70;;;;;;4038223;29;20145;-60
2022/04/25 00:52:42;;;;;;;10.00;1.80;;;21.50;73.70;;;;;;3998236;29;22016;-60
2022/04/25 00:54:45;;;;;;;6.88;1.80;;;21.50;73.50;;;;;;4024694;29;20107;-59
2022/04/25 00:56:50;;;;;;;4.18;1.38;;;21.50;73.30;;;;;;4028396;29;20572;-60
2022/04/25 00:58:53;;;;;;;6.75;1.48;;;21.50;73.10;;;;;;4034792;29;20054;-60
2022/04/25 01:00:55;;;;;;;4.80;1.88;;;21.50;72.80;;;;;;4025276;29;21916;-60
2022/04/25 01:02:57;;;;;;;4.05;1.88;;;21.50;73.30;;;;;;4004174;29;20052;-60
2022/04/25 01:05:00;;;;;;;4.07;1.42;;;21.50;72.70;;;;;;4033214;29;20078;-61
2022/04/25 01:07:02;;;;;;;3.92;1.45;;;21.50;72.60;;;;;;4033375;29;20055;-60
2022/04/25 01:09:05;;;;;;;3.80;1.40;;;21.60;72.50;;;;;;4026687;29;20525;-60
2022/04/25 01:11:08;;;;;;;2.92;1.08;;;21.50;72.50;;;;;;4022862;29;20619;-61
2022/04/25 01:13:13;;;;;;;2.73;1.40;;;21.60;72.40;;;;;;4018347;29;20144;-59
2022/04/25 01:15:15;;;;;;;2.95;1.10;;;21.60;73.00;;;;;;4034868;29;20062;-60
2022/04/25 01:17:17;;;;;;;2.50;1.33;;;21.50;72.30;;;;;;4028723;29;20055;-60
2022/04/25 01:19:19;;;;;;;4.35;1.25;;;21.50;72.40;;;;;;4019114;29;20116;-61
2022/04/25 01:21:22;;;;;;;5.15;1.83;;;21.60;72.30;;;;;;4038578;29;20484;-63
2022/04/25 01:28:11;;;;;;;1.73;0.70;;;21.50;72.30;;;;;;4012174;29;20389;-63
2022/04/25 01:30:13;;;;;;;2.35;1.08;;;21.50;72.30;;;;;;4037166;29;21858;-61
2022/04/25 01:32:16;;;;;;;1.90;0.68;;;21.50;73.00;;;;;;4015008;29;20596;-60
2022/04/25 01:34:19;;;;;;;2.75;0.82;;;21.50;72.30;;;;;;4014615;29;20056;-60
2022/04/25 01:36:24;;;;;;;1.65;0.63;;;21.50;72.30;;;;;;4037210;29;20056;-59
2022/04/25 01:38:26;;;;;;;8.60;1.50;;;21.50;72.20;;;;;;4036465;29;20055;-57
2022/04/25 01:40:29;;;;;;;2.80;0.73;;;21.50;72.70;;;;;;4032214;29;20138;-55
2022/04/25 01:42:31;;;;;;;4.63;0.68;;;21.50;72.80;;;;;;4032221;29;20054;-47
2022/04/25 01:44:34;;;;;;;2.08;0.70;;;21.50;73.20;;;;;;4037342;29;20196;-58
2022/04/25 01:46:38;;;;;;;;;;;21.50;73.20;;;;;;4034310;29;20629;-56
2022/04/25 01:48:40;;;;;;;9.82;1.50;;;21.50;73.20;;;;;;4027865;29;19950;-55
2022/04/25 01:50:43;;;;;;;1.55;0.60;;;21.50;73.30;;;;;;4031165;29;20798;-58
2022/04/25 01:52:45;;;;;;;2.13;1.00;;;21.50;73.40;;;;;;4040098;29;20074;-51
2022/04/25 01:54:48;;;;;;;1.90;0.83;;;21.60;73.40;;;;;;4030145;29;20138;-56
2022/04/25 01:56:50;;;;;;;2.97;0.98;;;21.60;73.50;;;;;;4018617;29;20204;-56
2022/04/25 01:58:52;;;;;;;4.63;1.17;;;21.60;73.50;;;;;;4041219;29;20122;-57
2022/04/25 02:00:54;;;;;;;1.50;0.85;;;21.60;73.40;;;;;;4030582;29;20944;-58
2022/04/25 02:02:56;;;;;;;3.90;0.82;;;21.60;73.30;;;;;;4014268;29;20056;-60
2022/04/25 02:04:59;;;;;;;2.17;1.02;;;21.60;73.20;;;;;;4034318;29;20039;-57
2022/04/25 02:07:02;;;;;;;1.73;0.70;;;21.60;73.10;;;;;;4036387;29;20539;-57
2022/04/25 02:09:04;;;;;;;3.28;0.82;;;21.70;73.10;;;;;;4010970;29;20135;-56
2022/04/25 02:11:22;;;;;;;1.53;0.80;;;21.70;73.10;;;;;;4029021;29;20545;-56
2022/04/25 02:13:24;;;;;;;1.85;0.70;;;21.70;73.10;;;;;;4030710;29;20064;-51
2022/04/25 02:15:26;;;;;;;2.72;0.70;;;21.70;73.10;;;;;;4035052;29;20497;-58
2022/04/25 02:17:28;;;;;;;1.85;0.80;;;21.80;73.10;;;;;;4035361;29;20070;-56
2022/04/25 02:19:35;;;;;;;1.45;0.60;;;21.70;73.00;;;;;;4028312;29;20060;-56
2022/04/25 02:21:37;;;;;;;3.38;1.00;;;21.70;73.00;;;;;;4026316;29;20067;-53
2022/04/25 02:23:39;;;;;;;1.48;0.70;;;21.80;73.00;;;;;;4034623;29;20546;-56
2022/04/25 02:25:41;;;;;;;0.65;0.55;;;21.80;73.00;;;;;;4016353;29;21416;-52
2022/04/25 02:27:43;;;;;;;1.30;0.60;;;21.80;72.90;;;;;;4031604;29;20060;-52
2022/04/25 02:29:48;;;;;;;1.42;0.73;;;21.80;72.90;;;;;;4033163;29;20127;-55
2022/04/25 02:31:50;;;;;;;1.50;0.60;;;21.80;72.90;;;;;;4036558;29;20089;-51
2022/04/25 02:33:52;;;;;;;2.78;0.90;;;21.90;73.00;;;;;;4014517;29;20139;-54
2022/04/25 02:35:54;;;;;;;3.28;1.05;;;21.90;73.10;;;;;;4025351;29;20052;-55
2022/04/25 02:37:56;;;;;;;1.85;0.98;;;21.90;73.30;;;;;;4033355;29;20071;-57
2022/04/25 02:39:59;;;;;;;2.85;0.70;;;21.90;73.20;;;;;;4030137;29;20063;-56
2022/04/25 02:42:01;;;;;;;0.68;0.55;;;22.00;73.30;;;;;;4026253;29;20059;-57
2022/04/25 02:44:03;;;;;;;1.08;0.60;;;22.00;73.30;;;;;;4033193;29;20070;-59
2022/04/25 02:46:07;;;;;;;1.98;0.55;;;22.00;73.20;;;;;;4031683;29;20923;-54
2022/04/25 02:48:09;;;;;;;1.67;0.75;;;22.00;73.20;;;;;;4028084;29;20081;-58
2022/04/25 02:50:11;;;;;;;5.85;0.95;;;22.00;73.20;;;;;;4023145;29;20087;-58
2022/04/25 02:52:14;;;;;;;0.77;0.35;;;22.10;73.40;;;;;;4031767;29;20091;-56
2022/04/25 02:54:16;;;;;;;1.60;0.75;;;22.10;73.30;;;;;;4032138;29;21308;-58
2022/04/25 02:56:18;;;;;;;1.20;0.60;;;22.10;73.20;;;;;;4024513;29;20565;-60
2022/04/25 02:58:21;;;;;;;1.27;0.50;;;22.10;73.90;;;;;;4032389;29;20055;-60
2022/04/25 03:00:23;;;;;;;3.00;0.55;;;22.20;73.30;;;;;;4029360;29;20085;-57
2022/04/25 03:02:25;;;;;;;6.65;0.73;;;22.20;73.30;;;;;;4025423;29;20651;-55
2022/04/25 03:04:27;;;;;;;4.40;0.60;;;22.20;73.30;;;;;;4025552;29;20051;-56
2022/04/25 03:06:29;;;;;;;1.02;0.50;;;22.20;73.20;;;;;;4031683;29;20055;-55
2022/04/25 03:08:34;;;;;;;1.75;0.47;;;22.20;73.10;;;;;;4027481;29;20083;-57
2022/04/25 03:10:36;;;;;;;1.73;0.32;;;22.30;73.10;;;;;;4027205;29;20055;-59
2022/04/25 03:12:38;;;;;;;3.63;0.63;;;22.20;73.20;;;;;;4032914;29;20253;-59
2022/04/25 03:14:40;;;;;;;2.10;0.75;;;22.20;73.50;;;;;;4035482;29;21053;-59
2022/04/25 03:16:43;;;;;;;4.07;0.70;;;22.30;73.50;;;;;;4028470;29;20067;-63
2022/04/25 03:18:45;;;;;;;12.57;1.73;;;22.40;73.50;;;;;;4017355;29;20052;-59
2022/04/25 03:20:49;;;;;;;2.13;0.73;;;22.40;73.60;;;;;;4038632;29;20055;-60
2022/04/25 03:22:51;;;;;;;5.95;1.20;;;22.30;73.50;;;;;;4029749;29;21811;-61
2022/04/25 03:24:53;;;;;;;3.15;1.05;;;22.40;73.40;;;;;;4015570;29;20123;-61
2022/04/25 03:26:55;;;;;;;4.80;1.60;;;22.40;73.60;;;;;;4035672;29;20137;-60
2022/04/25 03:28:57;;;;;;;1.83;0.90;;;22.40;74.40;;;;;;4034440;29;20588;-56
2022/04/25 03:31:00;;;;;;;6.97;1.30;;;22.40;74.50;;;;;;4016040;29;20082;-58
2022/04/25 03:33:03;;;;;;;3.58;1.00;;;22.60;74.70;;;;;;4033355;29;20056;-59
2022/04/25 03:35:05;;;;;;;;;;;22.60;74.60;;;;;;4039529;29;20061;-58
2022/04/25 03:37:07;;;;;;;2.05;1.20;;;22.60;74.20;;;;;;4032461;29;20011;-61
2022/04/25 03:39:09;;;;;;;3.55;0.90;;;22.70;74.10;;;;;;4014726;29;20096;-61
2022/04/25 03:41:15;;;;;;;2.58;1.00;;;22.70;74.00;;;;;;4039190;29;20067;-62
2022/04/25 03:43:18;;;;;;;3.50;1.02;;;22.80;73.80;;;;;;4033071;29;20443;-60
2022/04/25 03:45:20;;;;;;;1.70;1.08;;;22.80;73.70;;;;;;4011205;29;20099;-60
2022/04/25 03:47:23;;;;;;;1.73;0.90;;;22.80;73.60;;;;;;4030592;29;20114;-60
2022/04/25 03:49:25;;;;;;;4.57;1.15;;;22.90;73.40;;;;;;4040109;29;20135;-61
2022/04/25 03:51:28;;;;;;;4.70;1.13;;;22.90;73.60;;;;;;4030497;29;20066;-60
2022/04/25 03:53:30;;;;;;;;;;;22.90;73.50;;;;;;4029999;29;20077;-60
2022/04/25 03:57:53;;;;;;;3.22;0.93;;;23.00;73.40;;;;;;4010381;29;20052;-59
2022/04/25 03:59:55;;;;;;;6.43;1.20;;;23.00;73.20;;;;;;4038498;29;20086;-62
2022/04/25 04:01:57;;;;;;;6.75;1.00;;;23.10;73.20;;;;;;4039024;29;21258;-62
2022/04/25 04:04:04;;;;;;;1.95;1.00;;;23.10;73.10;;;;;;4034417;29;20051;-61
2022/04/25 04:06:09;;;;;;;3.30;1.15;;;23.20;73.00;;;;;;4018336;29;20218;-61
2022/04/25 04:08:12;;;;;;;3.13;0.70;;;23.20;73.00;;;;;;4041092;29;20059;-61
2022/04/25 04:10:18;;;;;;;1.77;0.90;;;23.30;72.90;;;;;;4010769;29;20060;-62
2022/04/25 04:12:23;;;;;;;2.38;0.80;;;23.30;72.70;;;;;;4032185;29;20062;-63
2022/04/25 04:14:26;;;;;;;2.90;1.25;;;23.30;72.60;;;;;;4032869;29;20066;-61
2022/04/25 04:16:28;;;;;;;3.20;0.82;;;23.40;72.60;;;;;;4022017;29;20060;-61
2022/04/25 04:18:31;;;;;;;4.25;1.00;;;23.40;72.50;;;;;;4040485;29;20047;-60
2022/04/25 04:20:34;;;;;;;2.47;0.73;;;23.60;72.30;;;;;;4003838;29;20459;-60
2022/04/25 04:22:36;;;;;;;1.38;0.70;;;23.60;72.10;;;;;;4035467;29;20631;-62
2022/04/25 04:24:38;;;;;;;2.25;0.68;;;23.60;71.90;;;;;;4040402;29;20122;-62
2022/04/25 04:26:42;;;;;;;3.38;0.90;;;23.70;72.50;;;;;;4019447;29;21662;-62
2022/04/25 04:28:44;;;;;;;1.88;0.70;;;23.70;71.80;;;;;;4033950;29;20808;-61
2022/04/25 04:30:47;;;;;;;2.53;0.75;;;23.70;71.80;;;;;;4038697;29;20048;-62
2022/04/25 04:32:52;;;;;;;1.73;0.50;;;23.70;71.90;;;;;;4037547;29;20070;-59
2022/04/25 04:34:54;;;;;;;2.25;0.63;;;23.70;71.90;;;;;;4033707;29;20048;-62
2022/04/25 04:36:59;;;;;;;1.85;0.75;;;23.70;71.80;;;;;;4026163;29;20091;-60
2022/04/25 04:39:01;;;;;;;2.47;0.60;;;23.80;71.80;;;;;;4032607;29;20436;-58
2022/04/25 04:41:03;;;;;;;1.38;0.60;;;23.80;71.80;;;;;;4032792;29;20110;-61
2022/04/25 04:43:06;;;;;;;2.37;0.70;;;23.80;71.70;;;;;;4029320;29;20075;-61
2022/04/25 04:45:08;;;;;;;4.63;0.70;;;23.80;71.50;;;;;;4030122;29;20241;-60
2022/04/25 04:47:11;;;;;;;2.28;0.57;;;23.80;71.50;;;;;;4040283;29;20446;-62
2022/04/25 04:49:13;;;;;;;0.45;0.45;;;23.80;71.40;;;;;;4032704;29;21922;-62
2022/04/25 04:51:15;;;;;;;1.60;0.65;;;23.90;71.40;;;;;;4031687;29;20051;-61
2022/04/25 04:53:17;;;;;;;5.63;0.82;;;23.80;71.40;;;;;;4038101;29;20086;-60
2022/04/25 04:55:20;;;;;;;0.65;0.47;;;23.80;71.40;;;;;;4034830;29;21130;-60
2022/04/25 04:57:22;;;;;;;0.45;0.38;;;23.80;71.40;;;;;;4029215;29;20095;-62
2022/04/25 04:59:24;;;;;;;1.90;0.65;;;23.80;71.40;;;;;;4036628;29;20437;-59
2022/04/25 05:01:27;;;;;;;0.63;0.45;;;23.80;71.50;;;;;;4034426;29;20118;-59
2022/04/25 05:03:31;;;;;;;0.40;0.40;;;23.90;71.50;;;;;;4010317;29;20140;-61
2022/04/25 05:05:33;;;;;;;0.30;0.30;;;23.90;71.20;;;;;;4033414;29;20243;-60
2022/04/25 05:07:36;;;;;;;2.15;0.35;;;24.00;71.30;;;;;;4023012;29;20060;-60
2022/04/25 05:09:38;;;;;;;2.10;0.50;;;24.00;71.10;;;;;;4022447;29;20191;-59
2022/04/25 05:11:43;;;;;;;1.15;0.50;;;24.00;70.90;;;;;;4015494;29;20252;-60
2022/04/25 05:13:45;;;;;;;0.35;0.35;;;24.00;70.80;;;;;;4013550;29;20184;-60
2022/04/25 05:15:48;;;;;;;0.80;0.40;;;24.00;70.70;;;;;;4041967;29;21325;-61
2022/04/25 05:17:53;;;;;;;0.45;0.40;;;24.10;70.60;;;;;;4017132;29;20071;-60
2022/04/25 05:19:55;;;;;;;0.88;0.40;;;24.10;70.50;;;;;;4034056;29;20119;-61
2022/04/25 05:21:57;;;;;;;2.42;0.57;;;24.10;70.50;;;;;;4035635;29;20242;-59
2022/04/25 05:24:00;;;;;;;0.45;0.32;;;24.10;70.40;;;;;;4042298;29;20059;-62
2022/04/25 05:26:02;;;;;;;0.47;0.30;;;24.10;70.40;;;;;;4032268;29;20074;-62
2022/04/25 05:28:05;;;;;;;0.65;0.40;;;24.20;70.40;;;;;;4031289;29;20405;-60
2022/04/25 05:30:08;;;;;;;0.50;0.40;;;24.20;70.20;;;;;;4040506;29;20083;-58
2022/04/25 05:32:10;;;;;;;0.40;0.38;;;24.20;70.00;;;;;;4038380;29;21388;-61
2022/04/25 05:34:15;;;;;;;1.00;0.40;;;24.20;69.90;;;;;;4016718;29;20163;-59
2022/04/25 05:36:17;;;;;;;3.05;0.43;;;24.20;69.80;;;;;;4034292;29;20059;-61
2022/04/25 05:38:19;;;;;;;4.07;0.70;;;24.30;69.90;;;;;;4037921;29;20071;-61
2022/04/25 05:40:22;;;;;;;1.17;0.60;;;24.30;69.80;;;;;;4031368;29;20186;-60
2022/04/25 05:42:23;;;;;;;;;;;24.30;69.70;;;;;;4015827;29;20080;-61
2022/04/25 05:44:26;;;;;;;0.50;0.30;;;24.30;69.70;;;;;;4042497;29;19927;-61
2022/04/25 05:46:28;;;;;;;1.20;0.47;;;24.30;69.40;;;;;;4033960;29;20118;-56
2022/04/25 05:53:14;;;;;;;0.82;0.50;;;24.40;69.20;;;;;;4038976;29;20060;-61
2022/04/25 05:55:16;;;;;;;0.60;0.40;;;24.40;69.00;;;;;;4021241;29;20206;-60
2022/04/25 05:57:18;;;;;;;1.45;0.57;;;24.40;68.90;;;;;;4031781;29;20162;-61
2022/04/25 05:59:20;;;;;;;1.05;0.30;;;24.40;68.90;;;;;;4038757;29;20119;-61
2022/04/25 06:01:23;;;;;;;0.80;0.40;;;24.40;68.90;;;;;;4038728;29;20793;-61
2022/04/25 06:03:25;;;;;;;0.90;0.40;;;24.40;68.90;;;;;;4026742;29;20060;-61
2022/04/25 06:05:27;;;;;;;1.40;0.50;;;24.40;68.90;;;;;;4032406;29;20079;-61
2022/04/25 06:07:29;;;;;;;0.52;0.50;;;24.40;68.80;;;;;;4022565;29;20135;-59
2022/04/25 06:09:32;;;;;;;0.65;0.60;;;24.40;68.70;;;;;;4028914;29;20110;-61
2022/04/25 06:11:34;;;;;;;2.78;0.80;;;24.40;68.70;;;;;;4014187;29;20060;-60
2022/04/25 06:13:36;;;;;;;2.03;0.98;;;24.40;68.10;;;;;;4035235;29;20059;-60
2022/04/25 06:15:38;;;;;;;1.95;0.60;;;24.40;68.20;;;;;;4013965;29;20052;-60
2022/04/25 06:17:40;;;;;;;2.38;0.77;;;24.40;68.30;;;;;;4009876;29;20055;-56
2022/04/25 06:19:43;;;;;;;2.22;0.57;;;24.40;68.30;;;;;;4037165;29;20052;-60
2022/04/25 06:21:45;;;;;;;2.15;0.40;;;24.40;68.40;;;;;;4038499;29;21691;-59
2022/04/25 06:23:47;;;;;;;0.90;0.47;;;24.40;68.40;;;;;;4014950;29;20191;-60
2022/04/25 06:25:50;;;;;;;1.05;0.52;;;24.40;68.50;;;;;;4034581;29;20052;-59
2022/04/25 06:27:52;;;;;;;0.82;0.43;;;24.40;68.40;;;;;;4038284;29;20098;-59
2022/04/25 06:29:54;;;;;;;0.85;0.55;;;24.40;68.50;;;;;;4015838;29;20062;-58
2022/04/25 06:31:56;;;;;;;0.30;0.30;;;24.40;68.40;;;;;;4031069;29;20138;-59
2022/04/25 06:33:58;;;;;;;1.50;0.40;;;24.50;68.40;;;;;;4040110;29;20126;-61
2022/04/25 06:36:01;;;;;;;1.17;0.63;;;24.50;68.40;;;;;;4036657;29;20186;-61
2022/04/25 06:38:03;;;;;;;0.68;0.50;;;24.50;68.30;;;;;;4032969;29;20091;-60
2022/04/25 06:40:07;;;;;;;1.00;0.40;;;24.50;68.20;;;;;;4035453;29;20059;-61
2022/04/25 06:42:10;;;;;;;0.88;0.43;;;24.50;68.30;;;;;;4019252;29;20064;-62
2022/04/25 06:44:12;;;;;;;4.32;0.70;;;24.50;68.10;;;;;;4031118;29;20153;-60
2022/04/25 06:46:14;;;;;;;1.50;0.40;;;24.50;68.10;;;;;;4029502;29;20047;-60
2022/04/25 06:48:16;;;;;;;0.60;0.40;;;24.50;68.10;;;;;;4038677;29;20051;-60
2022/04/25 06:50:18;;;;;;;1.60;0.45;;;24.50;68.10;;;;;;4032120;29;20066;-62
2022/04/25 06:52:23;;;;;;;1.20;0.45;;;24.50;68.00;;;;;;4024936;29;20429;-61
2022/04/25 06:54:27;;;;;;;1.83;0.50;;;24.60;68.00;;;;;;4031664;29;20126;-61
2022/04/25 06:56:29;;;;;;;1.00;0.40;;;24.60;68.00;;;;;;4037277;29;20059;-60
2022/04/25 06:58:31;;;;;;;4.00;0.40;;;24.60;67.80;;;;;;4013303;29;21233;-60
2022/04/25 07:00:34;;;;;;;1.25;0.60;;;24.60;67.70;;;;;;4029107;29;20999;-61
2022/04/25 07:02:36;;;;;;;1.23;0.28;;;24.60;67.70;;;;;;4037797;29;20059;-61
2022/04/25 07:04:39;;;;;;;0.68;0.47;;;24.60;67.60;;;;;;4035766;29;20060;-62
2022/04/25 07:06:42;;;;;;;2.15;0.40;;;24.60;67.50;;;;;;4011413;29;20060;-60
2022/04/25 07:08:44;;;;;;;0.63;0.40;;;24.60;68.10;;;;;;4031620;29;20552;-60
2022/04/25 07:10:46;;;;;;;3.13;0.60;;;24.60;67.60;;;;;;4036971;29;20056;-59
2022/04/25 07:12:48;;;;;;;4.70;0.67;;;24.60;67.30;;;;;;4031543;29;20070;-53
2022/04/25 07:14:51;;;;;;;0.60;0.40;;;24.60;67.50;;;;;;4029071;29;20052;-60
2022/04/25 07:16:54;;;;;;;1.13;0.50;;;24.60;67.60;;;;;;4038217;29;20074;-60
2022/04/25 07:18:57;;;;;;;0.40;0.30;;;24.60;67.60;;;;;;4031831;29;22263;-60
2022/04/25 07:20:59;;;;;;;0.98;0.35;;;24.60;67.70;;;;;;4032595;29;20650;-55
2022/04/25 07:30:03;;;;;;;0.80;0.30;;;24.60;67.70;;;;;;4032155;29;20477;-60
2022/04/25 07:32:05;;;;;;;0.40;0.32;;;24.60;67.50;;;;;;4027706;29;20953;-60
2022/04/25 07:34:07;;;;;;;1.50;0.47;;;24.60;67.60;;;;;;4028711;29;20851;-60
2022/04/25 07:36:10;;;;;;;0.75;0.40;;;24.60;67.70;;;;;;4036264;29;20064;-61
2022/04/25 07:38:12;;;;;;;4.80;0.70;;;24.60;67.70;;;;;;4013842;29;20703;-61
2022/04/25 07:40:15;;;;;;;1.63;0.30;;;24.60;67.80;;;;;;4029398;29;20047;-62
2022/04/25 07:42:18;;;;;;;3.57;0.63;;;24.60;67.80;;;;;;4027580;29;20055;-60
2022/04/25 07:44:20;;;;;;;3.40;0.40;;;24.60;67.50;;;;;;4035903;29;20155;-61
2022/04/25 07:46:26;;;;;;;5.53;0.55;;;24.60;67.50;;;;;;4028808;29;20126;-59
2022/04/25 07:48:29;;;;;;;8.32;0.57;;;24.60;67.50;;;;;;4029872;29;20106;-60
2022/04/25 07:50:31;;;;;;;1.20;0.40;;;24.60;67.40;;;;;;4028346;29;20083;-62
2022/04/25 07:52:33;;;;;;;1.92;0.60;;;24.60;67.50;;;;;;4036143;29;21089;-61
2022/04/25 07:54:35;;;;;;;3.20;0.55;;;24.60;68.20;;;;;;4028674;29;20159;-61
2022/04/25 07:56:38;;;;;;;2.83;0.40;;;24.60;67.50;;;;;;4026296;29;20489;-59
2022/04/25 07:58:41;;;;;;;0.30;0.30;;;24.60;67.50;;;;;;4033566;29;20082;-60
2022/04/25 08:00:43;;;;;;;2.38;0.40;;;24.60;67.50;;;;;;4011026;29;20108;-58
2022/04/25 08:02:45;;;;;;;3.10;0.70;;;24.60;67.40;;;;;;4025803;29;20519;-58
2022/04/25 08:04:48;;;;;;;4.50;0.68;;;24.60;67.40;;;;;;4029299;29;20561;-59
2022/04/25 08:06:50;;;;;;;5.68;0.98;;;24.60;67.40;;;;;;4032725;29;20545;-58
2022/04/25 08:08:54;;;;;;;5.13;0.93;;;24.60;67.40;;;;;;4011316;29;20176;-58
2022/04/25 08:10:56;;;;;;;2.78;0.50;;;24.60;67.50;;;;;;4028951;29;20142;-61
2022/04/25 08:17:59;;;;;;;4.65;0.65;;;24.50;68.20;;;;;;4011519;29;20520;-59
2022/04/25 08:20:02;;;;;;;2.03;0.40;;;24.50;68.40;;;;;;4030532;29;20063;-56
2022/04/25 08:22:09;;;;;;;4.55;0.50;;;24.50;67.70;;;;;;4027824;29;20055;-58
2022/04/25 08:24:13;;;;;;;4.00;1.00;;;24.50;67.90;;;;;;4029470;29;20207;-57
2022/04/25 08:26:16;;;;;;;3.40;0.45;;;24.50;67.80;;;;;;4034986;29;20056;-57
2022/04/25 08:28:19;;;;;;;1.60;0.40;;;24.40;67.80;;;;;;4033393;29;20081;-54
2022/04/25 08:30:22;;;;;;;1.75;0.43;;;24.40;67.90;;;;;;4032851;29;20052;-55
2022/04/25 08:32:24;;;;;;;1.00;0.60;;;24.40;67.80;;;;;;4034332;29;20116;-58
2022/04/25 08:34:26;;;;;;;1.17;0.52;;;24.40;67.70;;;;;;4041977;29;20762;-60
2022/04/25 08:36:29;;;;;;;2.25;0.25;;;24.40;67.80;;;;;;4037690;29;20056;-61
2022/04/25 08:38:31;;;;;;;0.93;0.50;;;24.40;67.90;;;;;;4036992;29;20375;-59
2022/04/25 08:40:35;;;;;;;8.68;0.70;;;24.40;68.00;;;;;;4041398;29;20074;-59
2022/04/25 08:42:38;;;;;;;2.00;0.50;;;24.40;68.00;;;;;;4023848;29;20060;-59
2022/04/25 08:44:41;;;;;;;3.55;0.60;;;24.40;68.00;;;;;;4034063;29;20947;-60
2022/04/25 08:46:49;;;;;;;0.52;0.32;;;24.40;68.00;;;;;;4034382;29;20651;-59
2022/04/25 08:48:52;;;;;;;1.40;0.75;;;24.40;67.90;;;;;;4039990;29;20135;-61
2022/04/25 08:50:55;;;;;;;1.20;0.35;;;24.40;68.00;;;;;;4042872;29;20960;-62
2022/04/25 08:52:59;;;;;;;2.55;0.57;;;24.40;68.00;;;;;;4019113;29;20190;-60
2022/04/25 08:55:02;;;;;;;1.63;0.63;;;24.30;67.10;;;;;;4036594;29;20068;-59
2022/04/25 08:57:06;;;;;;;1.48;0.70;;;24.30;65.90;;;;;;4039873;29;20567;-59
2022/04/25 08:59:10;;;;;;;3.20;0.90;;;24.30;65.20;;;;;;4038565;29;20056;-57
2022/04/25 09:01:13;;;;;;;3.08;1.17;;;24.20;64.80;;;;;;4033569;29;20575;-59
2022/04/25 09:03:15;;;;;;;4.07;1.38;;;24.20;64.90;;;;;;4029225;29;20067;-61
2022/04/25 09:05:19;;;;;;;1.55;0.98;;;24.20;64.50;;;;;;4024912;29;20493;-56
2022/04/25 09:07:20;;;;;;;;;;;24.20;64.80;;;;;;4039210;29;20055;-58
2022/04/25 09:09:23;;;;;;;1.38;0.90;;;24.20;65.10;;;;;;4035323;29;19923;-58
2022/04/25 09:13:46;;;;;;;1.98;0.90;;;24.20;65.70;;;;;;4031636;29;20604;-60
2022/04/25 09:15:49;;;;;;;0.40;0.40;;;24.20;65.90;;;;;;4015243;29;20134;-64
2022/04/25 09:17:55;;;;;;;0.75;0.70;;;24.20;66.20;;;;;;4033303;29;20528;-64
2022/04/25 09:19:58;;;;;;;1.20;0.85;;;24.20;65.90;;;;;;4029933;29;20118;-65
2022/04/25 09:22:01;;;;;;;1.05;0.80;;;24.10;65.20;;;;;;4030341;29;20066;-63
2022/04/25 09:24:03;;;;;;;1.40;0.70;;;24.10;64.90;;;;;;4034348;29;20056;-64
2022/04/25 09:26:31;;;;;;;2.50;1.10;;;24.10;64.60;;;;;;4034392;29;20056;-63
2022/04/25 09:28:44;;;;;;;1.60;1.10;;;24.10;64.80;;;;;;4010734;29;20056;-64
2022/04/25 09:30:59;;;;;;;5.22;1.50;;;24.10;64.50;;;;;;4040050;28;20561;-59
2022/04/25 09:33:01;;;;;;;1.55;0.93;;;24.00;64.40;;;;;;4047415;28;20158;-60
2022/04/25 09:35:30;;;;;;;1.95;1.13;;;24.00;64.80;;;;;;4054078;28;20125;-60
2022/04/25 09:37:42;;;;;;;2.67;1.02;;;24.00;64.70;;;;;;4048064;28;20171;-60
2022/04/25 09:39:45;;;;;;;1.65;1.00;;;24.00;64.40;;;;;;4049034;28;20491;-60
2022/04/25 09:41:47;;;;;;;1.77;1.15;;;23.90;63.80;;;;;;4046977;28;20092;-66
2022/04/25 09:43:58;;;;;;;3.28;1.10;;;23.90;64.40;;;;;;4038199;29;20060;-61
2022/04/25 09:46:07;;;;;;;3.95;1.42;;;23.90;64.50;;;;;;4057823;28;20729;-61
2022/04/25 09:48:11;;;;;;;15.40;2.25;;;23.80;64.60;;;;;;4038880;29;20059;-62
2022/04/25 09:50:15;;;;;;;;;;;23.80;65.00;;;;;;4032485;29;20086;-62
2022/04/25 09:52:17;;;;;;;2.70;1.20;;;23.80;64.70;;;;;;4048907;28;21255;-63
2022/04/25 09:54:25;;;;;;;2.78;1.17;;;23.80;64.40;;;;;;4053402;28;20064;-62
2022/04/25 09:56:32;;;;;;;3.53;1.13;;;23.80;64.20;;;;;;4057354;28;20583;-62
2022/04/25 09:58:37;;;;;;;2.33;1.38;;;23.70;64.10;;;;;;4054958;28;20063;-63
2022/04/25 10:00:39;;;;;;;1.85;1.05;;;23.70;64.10;;;;;;4049143;28;20094;-63
2022/04/25 10:02:42;;;;;;;2.78;1.50;;;23.70;64.10;;;;;;4047211;28;20791;-63
2022/04/25 10:04:45;;;;;;;2.15;1.25;;;23.70;64.10;;;;;;4059247;28;20074;-63
2022/04/25 10:06:48;;;;;;;1.45;1.13;;;23.70;64.10;;;;;;4054945;28;20636;-63
2022/04/25 10:08:54;;;;;;;2.07;1.30;;;23.60;64.00;;;;;;4032161;29;20056;-63
2022/04/25 10:10:57;;;;;;;1.98;1.30;;;23.60;64.00;;;;;;4031586;29;20504;-62
2022/04/25 10:13:01;;;;;;;2.38;1.50;;;23.60;64.00;;;;;;4054968;28;20520;-65
2022/04/25 10:15:05;;;;;;;2.15;1.33;;;23.60;64.20;;;;;;4056472;28;20165;-66
2022/04/25 10:17:07;;;;;;;2.47;1.40;;;23.60;64.70;;;;;;4047681;28;20079;-67
2022/04/25 10:19:10;;;;;;;2.00;1.48;;;23.60;64.90;;;;;;4030521;29;20083;-67
2022/04/25 10:21:14;;;;;;;2.22;1.42;;;23.60;65.20;;;;;;4039559;29;20067;-65
2022/04/25 10:23:17;;;;;;;2.42;1.20;;;23.60;65.40;;;;;;4050586;28;20063;-66
2022/04/25 10:25:19;;;;;;;3.92;1.27;;;23.60;65.50;;;;;;4031838;29;20051;-65
2022/04/25 10:27:27;;;;;;;1.98;1.20;;;23.70;65.70;;;;;;4052699;28;20055;-69
2022/04/25 10:29:37;;;;;;;1.80;1.20;;;23.70;66.00;;;;;;4058001;28;20093;-69
2022/04/25 10:31:42;;;;;;;2.28;1.40;;;23.70;66.00;;;;;;4056296;28;20137;-67
2022/04/25 10:33:56;;;;;;;2.70;1.30;;;23.70;66.10;;;;;;4052103;28;21417;-66
2022/04/25 10:35:58;;;;;;;;;;;23.70;66.10;;;;;;4035123;29;20059;-65
2022/04/25 10:38:00;;;;;;;4.63;1.58;;;23.70;66.30;;;;;;4048719;28;19926;-66
2022/04/25 10:40:08;;;;;;;3.97;1.90;;;23.70;67.00;;;;;;4049703;28;20178;-70
2022/04/25 10:44:31;;;;;;;3.13;1.67;;;23.70;67.10;;;;;;4047870;28;20131;-66
2022/04/25 10:47:07;;;;;;;3.45;1.58;;;23.70;67.00;;;;;;4052111;28;20063;-65
2022/04/25 10:49:10;;;;;;;3.67;1.45;;;23.70;67.10;;;;;;4048224;28;20150;-63
2022/04/25 10:51:13;;;;;;;;;;;23.70;66.90;;;;;;4032047;29;20056;-62
2022/04/25 10:53:15;;;;;;;2.45;1.52;;;23.70;66.90;;;;;;4045858;28;20004;-66
2022/04/25 10:55:23;;;;;;;6.88;2.10;;;23.70;67.00;;;;;;4054126;28;20110;-66
2022/04/25 10:57:26;;;;;;;4.47;1.70;;;23.70;67.00;;;;;;4031604;29;20048;-67
2022/04/25 10:59:28;;;;;;;3.40;1.80;;;23.70;67.00;;;;;;4026632;29;20064;-65
2022/04/25 11:01:31;;;;;;;3.00;1.35;;;23.70;67.00;;;;;;4030741;29;20795;-67
2022/04/25 11:03:33;;;;;;;2.13;1.30;;;23.70;67.10;;;;;;4037027;29;20651;-67
2022/04/25 11:05:38;;;;;;;7.47;1.53;;;23.70;67.10;;;;;;4046905;28;20086;-61
2022/04/25 11:07:42;;;;;;;26.80;3.95;;;23.70;67.20;;;;;;4042643;28;20066;-66
2022/04/25 11:09:44;;;;;;;10.32;2.40;;;23.70;68.10;;;;;;4029361;29;20186;-66
2022/04/25 11:11:48;;;;;;;12.60;2.50;;;23.70;67.20;;;;;;4054929;28;20749;-67